sensor_id;sensor_type;location;lat;lon;timestamp;P1;durP1;ratioP1;P2;durP2;ratioP2
553;SDS011;59;48.778;9.156;2023-04-25T00:00:52;2.23;;;2.03;;
553;SDS011;59;48.778;9.156;2023-04-25T00:03:18;3.20;;;2.30;;
553;SDS011;59;48.778;9.156;2023-04-25T00:05:44;2.47;;;1.70;;
553;SDS011;59;48.778;9.156;2023-04-25T00:08:10;2.40;;;2.20;;
553;SDS011;59;48.778;9.156;2023-04-25T00:10:36;2.67;;;2.20;;
553;SDS011;59;48.778;9.156;2023-04-25T00:13:01;2.70;;;1.97;;
553;SDS011;59;48.778;9.156;2023-04-25T00:15:27;4.37;;;2.00;;
553;SDS011;59;48.778;9.156;2023-04-25T00:17:55;2.23;;;2.00;;
553;SDS011;59;48.778;9.156;2023-04-25T00:20:22;2.63;;;1.90;;
553;SDS011;59;48.778;9.156;2023-04-25T00:22:48;2.47;;;2.00;;
553;SDS011;59;48.778;9.156;2023-04-25T00:25:14;2.27;;;2.10;;
553;SDS011;59;48.778;9.156;2023-04-25T00:27:40;1.90;;;1.70;;
553;SDS011;59;48.778;9.156;2023-04-25T00:30:07;2.60;;;2.23;;
553;SDS011;59;48.778;9.156;2023-04-25T00:32:33;2.53;;;2.33;;
553;SDS011;59;48.778;9.156;2023-04-25T00:34:59;2.30;;;2.00;;
553;SDS011;59;48.778;9.156;2023-04-25T00:37:24;2.53;;;2.20;;
553;SDS011;59;48.778;9.156;2023-04-25T00:39:50;2.37;;;2.13;;
553;SDS011;59;48.778;9.156;2023-04-25T00:42:18;2.60;;;2.17;;
553;SDS011;59;48.778;9.156;2023-04-25T00:44:44;2.00;;;1.90;;
553;SDS011;59;48.778;9.156;2023-04-25T00:47:10;2.63;;;2.10;;
553;SDS011;59;48.778;9.156;2023-04-25T00:49:36;2.53;;;2.40;;
553;SDS011;59;48.778;9.156;2023-04-25T00:52:02;2.67;;;1.80;;
553;SDS011;59;48.778;9.156;2023-04-25T00:54:27;2.63;;;2.00;;
553;SDS011;59;48.778;9.156;2023-04-25T00:56:55;1.90;;;1.90;;
553;SDS011;59;48.778;9.156;2023-04-25T00:59:20;4.50;;;2.30;;
553;SDS011;59;48.778;9.156;2023-04-25T01:01:46;2.20;;;1.90;;
553;SDS011;59;48.778;9.156;2023-04-25T01:04:12;4.37;;;2.03;;
553;SDS011;59;48.778;9.156;2023-04-25T01:06:38;2.47;;;2.30;;
553;SDS011;59;48.778;9.156;2023-04-25T01:09:04;3.30;;;2.10;;
553;SDS011;59;48.778;9.156;2023-04-25T01:11:30;1.87;;;1.80;;
553;SDS011;59;48.778;9.156;2023-04-25T01:13:56;2.37;;;2.17;;
553;SDS011;59;48.778;9.156;2023-04-25T01:16:22;4.30;;;2.10;;
553;SDS011;59;48.778;9.156;2023-04-25T01:18:49;2.50;;;2.17;;
553;SDS011;59;48.778;9.156;2023-04-25T01:21:16;2.43;;;2.17;;
553;SDS011;59;48.778;9.156;2023-04-25T01:23:42;2.10;;;1.90;;
553;SDS011;59;48.778;9.156;2023-04-25T01:29:18;2.30;;;2.03;;
553;SDS011;59;48.778;9.156;2023-04-25T01:31:44;2.83;;;2.10;;
553;SDS011;59;48.778;9.156;2023-04-25T01:34:10;3.20;;;2.53;;
553;SDS011;59;48.778;9.156;2023-04-25T01:36:36;3.40;;;2.60;;
553;SDS011;59;48.778;9.156;2023-04-25T01:39:01;2.40;;;2.20;;
553;SDS011;59;48.778;9.156;2023-04-25T01:41:27;3.17;;;2.40;;
553;SDS011;59;48.778;9.156;2023-04-25T01:43:53;4.63;;;2.27;;
553;SDS011;59;48.778;9.156;2023-04-25T01:46:19;5.13;;;2.60;;
553;SDS011;59;48.778;9.156;2023-04-25T01:48:45;3.87;;;2.63;;
553;SDS011;59;48.778;9.156;2023-04-25T01:51:11;2.80;;;2.43;;
553;SDS011;59;48.778;9.156;2023-04-25T01:53:37;3.00;;;2.20;;
553;SDS011;59;48.778;9.156;2023-04-25T01:56:03;3.57;;;2.63;;
553;SDS011;59;48.778;9.156;2023-04-25T01:58:29;3.60;;;2.27;;
553;SDS011;59;48.778;9.156;2023-04-25T02:00:55;2.90;;;2.60;;
553;SDS011;59;48.778;9.156;2023-04-25T02:03:21;3.60;;;2.47;;
553;SDS011;59;48.778;9.156;2023-04-25T02:05:46;3.77;;;2.43;;
553;SDS011;59;48.778;9.156;2023-04-25T02:08:12;5.73;;;2.90;;
553;SDS011;59;48.778;9.156;2023-04-25T02:10:38;2.80;;;2.23;;
553;SDS011;59;48.778;9.156;2023-04-25T02:13:03;4.10;;;2.90;;
553;SDS011;59;48.778;9.156;2023-04-25T02:15:30;3.80;;;2.63;;
553;SDS011;59;48.778;9.156;2023-04-25T02:17:56;2.60;;;2.47;;
553;SDS011;59;48.778;9.156;2023-04-25T02:20:23;3.20;;;2.33;;
553;SDS011;59;48.778;9.156;2023-04-25T02:22:49;2.67;;;2.33;;
553;SDS011;59;48.778;9.156;2023-04-25T02:25:16;3.60;;;2.60;;
553;SDS011;59;48.778;9.156;2023-04-25T02:27:43;3.40;;;2.37;;
553;SDS011;59;48.778;9.156;2023-04-25T02:30:08;2.80;;;2.53;;
553;SDS011;59;48.778;9.156;2023-04-25T02:32:34;4.50;;;2.57;;
553;SDS011;59;48.778;9.156;2023-04-25T02:35:01;3.50;;;2.80;;
553;SDS011;59;48.778;9.156;2023-04-25T02:37:33;2.70;;;2.50;;
553;SDS011;59;48.778;9.156;2023-04-25T02:39:59;9.67;;;2.93;;
553;SDS011;59;48.778;9.156;2023-04-25T02:42:26;3.30;;;2.60;;
553;SDS011;59;48.778;9.156;2023-04-25T02:44:52;3.47;;;2.70;;
553;SDS011;59;48.778;9.156;2023-04-25T02:47:18;3.17;;;2.70;;
553;SDS011;59;48.778;9.156;2023-04-25T02:49:44;3.23;;;2.50;;
553;SDS011;59;48.778;9.156;2023-04-25T02:52:10;3.20;;;2.43;;
553;SDS011;59;48.778;9.156;2023-04-25T02:54:37;3.10;;;2.60;;
553;SDS011;59;48.778;9.156;2023-04-25T02:57:03;4.53;;;3.10;;
553;SDS011;59;48.778;9.156;2023-04-25T02:59:29;3.60;;;2.60;;
553;SDS011;59;48.778;9.156;2023-04-25T03:01:54;3.03;;;2.80;;
553;SDS011;59;48.778;9.156;2023-04-25T03:04:20;3.80;;;2.60;;
553;SDS011;59;48.778;9.156;2023-04-25T03:06:48;3.20;;;2.80;;
553;SDS011;59;48.778;9.156;2023-04-25T03:09:14;2.67;;;2.37;;
553;SDS011;59;48.778;9.156;2023-04-25T03:11:40;3.17;;;2.40;;
553;SDS011;59;48.778;9.156;2023-04-25T03:14:06;3.27;;;2.70;;
553;SDS011;59;48.778;9.156;2023-04-25T03:16:32;2.80;;;2.23;;
553;SDS011;59;48.778;9.156;2023-04-25T03:18:58;4.30;;;2.33;;
553;SDS011;59;48.778;9.156;2023-04-25T03:21:24;3.33;;;2.10;;
553;SDS011;59;48.778;9.156;2023-04-25T03:23:50;4.00;;;2.40;;
553;SDS011;59;48.778;9.156;2023-04-25T03:26:15;5.10;;;2.43;;
553;SDS011;59;48.778;9.156;2023-04-25T03:28:41;3.00;;;2.30;;
553;SDS011;59;48.778;9.156;2023-04-25T03:31:07;3.50;;;2.30;;
553;SDS011;59;48.778;9.156;2023-04-25T03:33:33;4.07;;;2.30;;
553;SDS011;59;48.778;9.156;2023-04-25T03:35:58;3.53;;;2.50;;
553;SDS011;59;48.778;9.156;2023-04-25T03:38:24;3.17;;;2.43;;
553;SDS011;59;48.778;9.156;2023-04-25T03:40:50;2.50;;;2.27;;
553;SDS011;59;48.778;9.156;2023-04-25T03:43:16;4.87;;;2.70;;
553;SDS011;59;48.778;9.156;2023-04-25T03:45:42;4.10;;;2.50;;
553;SDS011;59;48.778;9.156;2023-04-25T03:48:07;2.53;;;2.33;;
553;SDS011;59;48.778;9.156;2023-04-25T03:50:33;4.30;;;2.70;;
553;SDS011;59;48.778;9.156;2023-04-25T03:52:59;2.93;;;2.70;;
553;SDS011;59;48.778;9.156;2023-04-25T03:55:24;3.00;;;2.80;;
553;SDS011;59;48.778;9.156;2023-04-25T03:57:50;3.70;;;2.90;;
553;SDS011;59;48.778;9.156;2023-04-25T04:00:16;2.67;;;2.57;;
553;SDS011;59;48.778;9.156;2023-04-25T04:02:42;3.53;;;2.70;;
553;SDS011;59;48.778;9.156;2023-04-25T04:05:08;3.63;;;2.93;;
553;SDS011;59;48.778;9.156;2023-04-25T04:07:34;2.77;;;2.57;;
553;SDS011;59;48.778;9.156;2023-04-25T04:10:04;6.23;;;2.77;;
553;SDS011;59;48.778;9.156;2023-04-25T04:12:31;3.70;;;2.77;;
553;SDS011;59;48.778;9.156;2023-04-25T04:14:57;3.27;;;2.73;;
553;SDS011;59;48.778;9.156;2023-04-25T04:17:22;4.80;;;2.97;;
553;SDS011;59;48.778;9.156;2023-04-25T04:19:48;3.47;;;2.80;;
553;SDS011;59;48.778;9.156;2023-04-25T04:22:14;3.23;;;2.67;;
553;SDS011;59;48.778;9.156;2023-04-25T04:24:40;3.10;;;2.83;;
553;SDS011;59;48.778;9.156;2023-04-25T04:27:09;61.83;;;37.33;;
553;SDS011;59;48.778;9.156;2023-04-25T04:29:35;31.13;;;18.57;;
553;SDS011;59;48.778;9.156;2023-04-25T04:32:02;21.87;;;11.00;;
553;SDS011;59;48.778;9.156;2023-04-25T04:34:28;10.30;;;6.67;;
553;SDS011;59;48.778;9.156;2023-04-25T04:36:54;8.17;;;5.57;;
553;SDS011;59;48.778;9.156;2023-04-25T04:39:20;6.47;;;4.43;;
553;SDS011;59;48.778;9.156;2023-04-25T04:41:46;5.30;;;3.73;;
553;SDS011;59;48.778;9.156;2023-04-25T04:44:12;6.63;;;3.80;;
553;SDS011;59;48.778;9.156;2023-04-25T04:46:40;4.27;;;3.33;;
553;SDS011;59;48.778;9.156;2023-04-25T04:49:09;3.80;;;3.07;;
553;SDS011;59;48.778;9.156;2023-04-25T04:51:36;4.03;;;3.30;;
553;SDS011;59;48.778;9.156;2023-04-25T04:54:02;4.10;;;2.83;;
553;SDS011;59;48.778;9.156;2023-04-25T04:56:29;6.67;;;3.17;;
553;SDS011;59;48.778;9.156;2023-04-25T04:58:56;4.80;;;3.57;;
553;SDS011;59;48.778;9.156;2023-04-25T05:01:22;6.03;;;3.30;;
553;SDS011;59;48.778;9.156;2023-04-25T05:04:17;5.23;;;3.70;;
553;SDS011;59;48.778;9.156;2023-04-25T05:06:43;5.00;;;3.47;;
553;SDS011;59;48.778;9.156;2023-04-25T05:09:10;4.70;;;2.90;;
553;SDS011;59;48.778;9.156;2023-04-25T05:11:35;4.40;;;3.53;;
553;SDS011;59;48.778;9.156;2023-04-25T05:14:01;4.40;;;3.23;;
553;SDS011;59;48.778;9.156;2023-04-25T05:16:27;5.37;;;3.60;;
553;SDS011;59;48.778;9.156;2023-04-25T05:18:52;5.57;;;3.87;;
553;SDS011;59;48.778;9.156;2023-04-25T05:21:18;4.17;;;3.50;;
553;SDS011;59;48.778;9.156;2023-04-25T05:23:44;5.00;;;3.53;;
553;SDS011;59;48.778;9.156;2023-04-25T05:26:09;6.13;;;3.13;;
553;SDS011;59;48.778;9.156;2023-04-25T05:28:39;4.10;;;3.30;;
553;SDS011;59;48.778;9.156;2023-04-25T05:33:51;3.83;;;3.30;;
553;SDS011;59;48.778;9.156;2023-04-25T05:36:18;4.10;;;3.53;;
553;SDS011;59;48.778;9.156;2023-04-25T05:38:44;7.00;;;3.60;;
553;SDS011;59;48.778;9.156;2023-04-25T05:41:10;3.93;;;3.40;;
553;SDS011;59;48.778;9.156;2023-04-25T05:43:36;4.40;;;3.50;;
553;SDS011;59;48.778;9.156;2023-04-25T05:46:03;3.63;;;3.20;;
553;SDS011;59;48.778;9.156;2023-04-25T05:48:28;4.57;;;3.63;;
553;SDS011;59;48.778;9.156;2023-04-25T05:50:55;3.50;;;2.93;;
553;SDS011;59;48.778;9.156;2023-04-25T05:53:20;3.43;;;3.13;;
553;SDS011;59;48.778;9.156;2023-04-25T05:55:47;6.57;;;3.17;;
553;SDS011;59;48.778;9.156;2023-04-25T05:58:12;4.20;;;3.50;;
553;SDS011;59;48.778;9.156;2023-04-25T06:00:38;3.70;;;3.10;;
553;SDS011;59;48.778;9.156;2023-04-25T06:03:06;5.03;;;3.70;;
553;SDS011;59;48.778;9.156;2023-04-25T06:05:34;3.70;;;3.17;;
553;SDS011;59;48.778;9.156;2023-04-25T06:08:00;3.87;;;3.10;;
553;SDS011;59;48.778;9.156;2023-04-25T06:10:26;3.57;;;2.93;;
553;SDS011;59;48.778;9.156;2023-04-25T06:12:51;3.13;;;2.63;;
553;SDS011;59;48.778;9.156;2023-04-25T06:15:17;3.37;;;2.70;;
553;SDS011;59;48.778;9.156;2023-04-25T06:17:59;5.43;;;3.00;;
553;SDS011;59;48.778;9.156;2023-04-25T06:20:25;6.03;;;3.70;;
553;SDS011;59;48.778;9.156;2023-04-25T06:22:51;4.07;;;3.30;;
553;SDS011;59;48.778;9.156;2023-04-25T06:25:17;3.93;;;3.50;;
553;SDS011;59;48.778;9.156;2023-04-25T06:27:43;3.80;;;3.40;;
553;SDS011;59;48.778;9.156;2023-04-25T06:30:09;3.93;;;3.37;;
553;SDS011;59;48.778;9.156;2023-04-25T06:32:37;3.17;;;2.90;;
553;SDS011;59;48.778;9.156;2023-04-25T06:35:03;5.23;;;3.40;;
553;SDS011;59;48.778;9.156;2023-04-25T06:37:29;2.97;;;2.60;;
553;SDS011;59;48.778;9.156;2023-04-25T06:39:55;3.20;;;2.73;;
553;SDS011;59;48.778;9.156;2023-04-25T06:42:21;4.77;;;3.43;;
553;SDS011;59;48.778;9.156;2023-04-25T06:44:46;4.73;;;3.33;;
553;SDS011;59;48.778;9.156;2023-04-25T06:47:14;4.97;;;2.90;;
553;SDS011;59;48.778;9.156;2023-04-25T06:49:39;4.27;;;3.50;;
553;SDS011;59;48.778;9.156;2023-04-25T06:52:05;3.30;;;3.13;;
553;SDS011;59;48.778;9.156;2023-04-25T06:54:32;5.13;;;3.03;;
553;SDS011;59;48.778;9.156;2023-04-25T06:56:57;3.10;;;2.87;;
553;SDS011;59;48.778;9.156;2023-04-25T06:59:23;4.60;;;3.70;;
553;SDS011;59;48.778;9.156;2023-04-25T07:01:49;5.37;;;3.13;;
553;SDS011;59;48.778;9.156;2023-04-25T07:04:14;3.47;;;3.27;;
553;SDS011;59;48.778;9.156;2023-04-25T07:06:40;3.63;;;3.33;;
553;SDS011;59;48.778;9.156;2023-04-25T07:09:10;4.67;;;3.80;;
553;SDS011;59;48.778;9.156;2023-04-25T07:11:37;5.37;;;3.67;;
553;SDS011;59;48.778;9.156;2023-04-25T07:14:02;7.60;;;3.80;;
553;SDS011;59;48.778;9.156;2023-04-25T07:16:28;4.00;;;3.90;;
553;SDS011;59;48.778;9.156;2023-04-25T07:18:54;4.97;;;3.80;;
553;SDS011;59;48.778;9.156;2023-04-25T07:21:20;4.20;;;3.67;;
553;SDS011;59;48.778;9.156;2023-04-25T07:23:46;4.60;;;3.70;;
553;SDS011;59;48.778;9.156;2023-04-25T07:26:12;4.20;;;3.27;;
553;SDS011;59;48.778;9.156;2023-04-25T07:28:38;4.30;;;3.80;;
553;SDS011;59;48.778;9.156;2023-04-25T07:31:03;4.33;;;3.60;;
553;SDS011;59;48.778;9.156;2023-04-25T07:33:30;4.27;;;3.20;;
553;SDS011;59;48.778;9.156;2023-04-25T07:35:56;4.40;;;3.47;;
553;SDS011;59;48.778;9.156;2023-04-25T07:38:21;5.53;;;3.53;;
553;SDS011;59;48.778;9.156;2023-04-25T07:40:47;4.73;;;3.63;;
553;SDS011;59;48.778;9.156;2023-04-25T07:43:13;5.17;;;4.20;;
553;SDS011;59;48.778;9.156;2023-04-25T07:45:45;5.00;;;4.00;;
553;SDS011;59;48.778;9.156;2023-04-25T07:48:11;5.10;;;3.60;;
553;SDS011;59;48.778;9.156;2023-04-25T07:50:38;5.57;;;3.53;;
553;SDS011;59;48.778;9.156;2023-04-25T07:53:04;4.10;;;3.50;;
553;SDS011;59;48.778;9.156;2023-04-25T07:55:30;4.57;;;3.40;;
553;SDS011;59;48.778;9.156;2023-04-25T07:57:56;3.83;;;3.40;;
553;SDS011;59;48.778;9.156;2023-04-25T08:00:31;7.00;;;3.53;;
553;SDS011;59;48.778;9.156;2023-04-25T08:02:57;4.40;;;3.70;;
553;SDS011;59;48.778;9.156;2023-04-25T08:05:23;4.60;;;3.50;;
553;SDS011;59;48.778;9.156;2023-04-25T08:07:48;4.50;;;4.07;;
553;SDS011;59;48.778;9.156;2023-04-25T08:10:15;6.13;;;4.27;;
553;SDS011;59;48.778;9.156;2023-04-25T08:12:40;6.33;;;4.03;;
553;SDS011;59;48.778;9.156;2023-04-25T08:15:06;4.57;;;3.80;;
553;SDS011;59;48.778;9.156;2023-04-25T08:17:32;6.00;;;3.80;;
553;SDS011;59;48.778;9.156;2023-04-25T08:19:58;4.90;;;4.07;;
553;SDS011;59;48.778;9.156;2023-04-25T08:22:24;6.37;;;4.10;;
553;SDS011;59;48.778;9.156;2023-04-25T08:24:59;5.67;;;3.70;;
553;SDS011;59;48.778;9.156;2023-04-25T08:27:25;4.40;;;3.83;;
553;SDS011;59;48.778;9.156;2023-04-25T08:29:51;6.60;;;3.87;;
553;SDS011;59;48.778;9.156;2023-04-25T08:32:17;3.90;;;3.60;;
553;SDS011;59;48.778;9.156;2023-04-25T08:34:43;6.20;;;4.20;;
553;SDS011;59;48.778;9.156;2023-04-25T08:37:09;5.77;;;4.47;;
553;SDS011;59;48.778;9.156;2023-04-25T08:39:38;7.90;;;4.20;;
553;SDS011;59;48.778;9.156;2023-04-25T08:42:05;4.50;;;4.00;;
553;SDS011;59;48.778;9.156;2023-04-25T08:44:34;5.53;;;4.07;;
553;SDS011;59;48.778;9.156;2023-04-25T08:47:01;4.23;;;3.67;;
553;SDS011;59;48.778;9.156;2023-04-25T08:49:28;4.33;;;3.70;;
553;SDS011;59;48.778;9.156;2023-04-25T08:51:56;5.30;;;3.57;;
553;SDS011;59;48.778;9.156;2023-04-25T08:54:25;7.10;;;3.43;;
553;SDS011;59;48.778;9.156;2023-04-25T08:56:53;5.67;;;4.07;;
553;SDS011;59;48.778;9.156;2023-04-25T08:59:19;5.10;;;4.23;;
553;SDS011;59;48.778;9.156;2023-04-25T09:01:46;5.40;;;3.93;;
553;SDS011;59;48.778;9.156;2023-04-25T09:04:12;5.30;;;3.77;;
553;SDS011;59;48.778;9.156;2023-04-25T09:06:38;4.40;;;3.63;;
553;SDS011;59;48.778;9.156;2023-04-25T09:09:05;5.30;;;4.33;;
553;SDS011;59;48.778;9.156;2023-04-25T09:11:32;6.97;;;4.00;;
553;SDS011;59;48.778;9.156;2023-04-25T09:14:17;6.57;;;4.20;;
553;SDS011;59;48.778;9.156;2023-04-25T09:19:26;5.03;;;3.83;;
553;SDS011;59;48.778;9.156;2023-04-25T09:21:57;4.70;;;3.80;;
553;SDS011;59;48.778;9.156;2023-04-25T09:24:34;5.20;;;4.40;;
553;SDS011;59;48.778;9.156;2023-04-25T09:27:08;5.60;;;4.37;;
553;SDS011;59;48.778;9.156;2023-04-25T09:29:39;6.10;;;4.80;;
553;SDS011;59;48.778;9.156;2023-04-25T09:32:22;6.40;;;4.27;;
553;SDS011;59;48.778;9.156;2023-04-25T09:34:49;5.80;;;4.70;;
553;SDS011;59;48.778;9.156;2023-04-25T09:37:23;5.17;;;4.40;;
553;SDS011;59;48.778;9.156;2023-04-25T09:39:51;7.10;;;5.10;;
553;SDS011;59;48.778;9.156;2023-04-25T09:42:23;6.07;;;4.67;;
553;SDS011;59;48.778;9.156;2023-04-25T09:44:54;5.83;;;4.07;;
553;SDS011;59;48.778;9.156;2023-04-25T09:47:22;4.30;;;4.00;;
553;SDS011;59;48.778;9.156;2023-04-25T09:49:49;4.97;;;3.80;;
553;SDS011;59;48.778;9.156;2023-04-25T09:52:23;4.70;;;3.33;;
553;SDS011;59;48.778;9.156;2023-04-25T09:54:49;6.40;;;3.77;;
553;SDS011;59;48.778;9.156;2023-04-25T09:57:19;3.83;;;3.37;;
553;SDS011;59;48.778;9.156;2023-04-25T09:59:50;5.17;;;4.20;;
553;SDS011;59;48.778;9.156;2023-04-25T10:02:18;5.43;;;3.93;;
553;SDS011;59;48.778;9.156;2023-04-25T10:04:48;3.57;;;3.47;;
553;SDS011;59;48.778;9.156;2023-04-25T10:07:19;2.90;;;2.70;;
553;SDS011;59;48.778;9.156;2023-04-25T10:09:51;3.53;;;2.70;;
553;SDS011;59;48.778;9.156;2023-04-25T10:12:27;3.40;;;2.60;;
553;SDS011;59;48.778;9.156;2023-04-25T10:14:54;2.27;;;2.13;;
553;SDS011;59;48.778;9.156;2023-04-25T10:17:20;2.20;;;2.00;;
553;SDS011;59;48.778;9.156;2023-04-25T10:19:49;2.23;;;2.07;;
553;SDS011;59;48.778;9.156;2023-04-25T10:22:20;2.30;;;2.00;;
553;SDS011;59;48.778;9.156;2023-04-25T10:24:51;2.20;;;1.90;;
553;SDS011;59;48.778;9.156;2023-04-25T10:27:17;2.90;;;2.20;;
553;SDS011;59;48.778;9.156;2023-04-25T10:29:43;2.00;;;1.90;;
553;SDS011;59;48.778;9.156;2023-04-25T10:32:11;1.87;;;1.80;;
553;SDS011;59;48.778;9.156;2023-04-25T10:34:38;1.87;;;1.70;;
553;SDS011;59;48.778;9.156;2023-04-25T10:37:04;1.83;;;1.50;;
553;SDS011;59;48.778;9.156;2023-04-25T10:39:32;3.20;;;1.90;;
553;SDS011;59;48.778;9.156;2023-04-25T10:41:58;2.00;;;1.80;;
553;SDS011;59;48.778;9.156;2023-04-25T10:44:27;1.77;;;1.70;;
553;SDS011;59;48.778;9.156;2023-04-25T10:47:01;2.17;;;1.90;;
553;SDS011;59;48.778;9.156;2023-04-25T10:49:31;3.30;;;2.13;;
553;SDS011;59;48.778;9.156;2023-04-25T10:52:11;2.70;;;2.53;;
553;SDS011;59;48.778;9.156;2023-04-25T10:54:56;4.77;;;2.70;;
553;SDS011;59;48.778;9.156;2023-04-25T11:00:15;4.20;;;3.23;;
553;SDS011;59;48.778;9.156;2023-04-25T11:05:34;4.57;;;4.20;;
553;SDS011;59;48.778;9.156;2023-04-25T11:08:01;5.83;;;3.93;;
553;SDS011;59;48.778;9.156;2023-04-25T11:10:29;4.83;;;4.10;;
553;SDS011;59;48.778;9.156;2023-04-25T11:12:55;4.13;;;3.70;;
553;SDS011;59;48.778;9.156;2023-04-25T11:15:21;7.40;;;4.00;;
553;SDS011;59;48.778;9.156;2023-04-25T11:17:47;4.90;;;3.60;;
553;SDS011;59;48.778;9.156;2023-04-25T11:20:13;3.57;;;3.37;;
553;SDS011;59;48.778;9.156;2023-04-25T11:22:40;4.87;;;3.53;;
553;SDS011;59;48.778;9.156;2023-04-25T11:25:07;4.30;;;3.07;;
553;SDS011;59;48.778;9.156;2023-04-25T11:27:34;4.73;;;3.20;;
553;SDS011;59;48.778;9.156;2023-04-25T11:30:15;4.80;;;3.13;;
553;SDS011;59;48.778;9.156;2023-04-25T11:32:41;4.30;;;3.07;;
553;SDS011;59;48.778;9.156;2023-04-25T11:35:10;3.10;;;2.80;;
553;SDS011;59;48.778;9.156;2023-04-25T11:37:38;2.60;;;2.40;;
553;SDS011;59;48.778;9.156;2023-04-25T11:40:05;3.50;;;2.80;;
553;SDS011;59;48.778;9.156;2023-04-25T11:42:32;3.77;;;2.70;;
553;SDS011;59;48.778;9.156;2023-04-25T11:44:58;2.50;;;2.23;;
553;SDS011;59;48.778;9.156;2023-04-25T11:47:31;3.73;;;2.70;;
553;SDS011;59;48.778;9.156;2023-04-25T11:50:05;3.30;;;2.83;;
553;SDS011;59;48.778;9.156;2023-04-25T11:52:39;3.20;;;2.97;;
553;SDS011;59;48.778;9.156;2023-04-25T11:55:10;3.40;;;3.20;;
553;SDS011;59;48.778;9.156;2023-04-25T11:57:40;3.40;;;3.00;;
553;SDS011;59;48.778;9.156;2023-04-25T12:00:13;3.00;;;2.90;;
553;SDS011;59;48.778;9.156;2023-04-25T12:02:46;3.73;;;3.30;;
553;SDS011;59;48.778;9.156;2023-04-25T12:05:14;3.47;;;3.30;;
553;SDS011;59;48.778;9.156;2023-04-25T12:07:43;3.83;;;3.50;;
553;SDS011;59;48.778;9.156;2023-04-25T12:10:10;4.10;;;3.63;;
553;SDS011;59;48.778;9.156;2023-04-25T12:12:37;3.97;;;3.43;;
553;SDS011;59;48.778;9.156;2023-04-25T12:17:40;7.50;;;4.00;;
553;SDS011;59;48.778;9.156;2023-04-25T12:20:11;5.77;;;4.07;;
553;SDS011;59;48.778;9.156;2023-04-25T12:22:45;5.83;;;4.43;;
553;SDS011;59;48.778;9.156;2023-04-25T12:33:22;5.63;;;4.50;;
553;SDS011;59;48.778;9.156;2023-04-25T12:35:48;6.40;;;4.10;;
553;SDS011;59;48.778;9.156;2023-04-25T12:38:21;6.90;;;5.30;;
553;SDS011;59;48.778;9.156;2023-04-25T12:40:47;7.20;;;5.00;;
553;SDS011;59;48.778;9.156;2023-04-25T12:43:13;7.33;;;5.20;;
553;SDS011;59;48.778;9.156;2023-04-25T12:45:39;9.20;;;5.67;;
553;SDS011;59;48.778;9.156;2023-04-25T12:48:05;8.03;;;5.50;;
553;SDS011;59;48.778;9.156;2023-04-25T12:50:30;7.67;;;5.60;;
553;SDS011;59;48.778;9.156;2023-04-25T12:52:57;9.60;;;5.90;;
553;SDS011;59;48.778;9.156;2023-04-25T12:55:22;8.40;;;6.00;;
553;SDS011;59;48.778;9.156;2023-04-25T12:57:48;7.10;;;5.10;;
553;SDS011;59;48.778;9.156;2023-04-25T13:00:14;6.60;;;5.43;;
553;SDS011;59;48.778;9.156;2023-04-25T13:02:42;7.60;;;5.20;;
553;SDS011;59;48.778;9.156;2023-04-25T13:05:08;5.37;;;4.50;;
553;SDS011;59;48.778;9.156;2023-04-25T13:07:34;8.53;;;5.77;;
553;SDS011;59;48.778;9.156;2023-04-25T13:09:59;9.37;;;6.00;;
553;SDS011;59;48.778;9.156;2023-04-25T13:12:27;7.03;;;5.50;;
553;SDS011;59;48.778;9.156;2023-04-25T13:14:53;8.37;;;5.60;;
553;SDS011;59;48.778;9.156;2023-04-25T13:17:18;8.40;;;6.33;;
553;SDS011;59;48.778;9.156;2023-04-25T13:19:44;6.63;;;5.43;;
553;SDS011;59;48.778;9.156;2023-04-25T13:22:10;9.00;;;5.53;;
553;SDS011;59;48.778;9.156;2023-04-25T13:24:36;8.60;;;6.40;;
553;SDS011;59;48.778;9.156;2023-04-25T13:27:01;10.93;;;7.00;;
553;SDS011;59;48.778;9.156;2023-04-25T13:29:27;11.77;;;6.90;;
553;SDS011;59;48.778;9.156;2023-04-25T13:31:53;8.50;;;7.07;;
553;SDS011;59;48.778;9.156;2023-04-25T13:34:18;9.70;;;6.37;;
553;SDS011;59;48.778;9.156;2023-04-25T13:36:44;8.53;;;6.50;;
553;SDS011;59;48.778;9.156;2023-04-25T13:39:10;8.90;;;6.97;;
553;SDS011;59;48.778;9.156;2023-04-25T13:41:36;10.67;;;7.70;;
553;SDS011;59;48.778;9.156;2023-04-25T13:44:02;11.17;;;7.90;;
553;SDS011;59;48.778;9.156;2023-04-25T13:46:27;10.97;;;7.87;;
553;SDS011;59;48.778;9.156;2023-04-25T13:48:53;12.70;;;8.40;;
553;SDS011;59;48.778;9.156;2023-04-25T13:51:18;11.73;;;8.27;;
553;SDS011;59;48.778;9.156;2023-04-25T13:53:45;10.17;;;7.93;;
553;SDS011;59;48.778;9.156;2023-04-25T13:56:11;9.10;;;7.77;;
553;SDS011;59;48.778;9.156;2023-04-25T13:58:37;11.83;;;8.17;;
553;SDS011;59;48.778;9.156;2023-04-25T14:01:03;10.60;;;8.30;;
553;SDS011;59;48.778;9.156;2023-04-25T14:03:28;11.10;;;8.50;;
553;SDS011;59;48.778;9.156;2023-04-25T14:05:55;9.33;;;7.07;;
553;SDS011;59;48.778;9.156;2023-04-25T14:08:20;9.73;;;6.70;;
553;SDS011;59;48.778;9.156;2023-04-25T14:10:46;9.73;;;7.20;;
553;SDS011;59;48.778;9.156;2023-04-25T14:13:12;10.27;;;6.83;;
553;SDS011;59;48.778;9.156;2023-04-25T14:15:37;11.93;;;8.40;;
553;SDS011;59;48.778;9.156;2023-04-25T14:18:03;9.60;;;6.60;;
553;SDS011;59;48.778;9.156;2023-04-25T14:20:29;9.70;;;7.40;;
553;SDS011;59;48.778;9.156;2023-04-25T14:22:55;10.27;;;6.87;;
553;SDS011;59;48.778;9.156;2023-04-25T14:25:23;8.40;;;6.50;;
553;SDS011;59;48.778;9.156;2023-04-25T14:27:49;7.47;;;5.90;;
553;SDS011;59;48.778;9.156;2023-04-25T14:30:18;9.70;;;6.93;;
553;SDS011;59;48.778;9.156;2023-04-25T14:32:45;7.83;;;6.17;;
553;SDS011;59;48.778;9.156;2023-04-25T14:35:11;7.93;;;6.10;;
553;SDS011;59;48.778;9.156;2023-04-25T14:37:36;6.93;;;5.30;;
553;SDS011;59;48.778;9.156;2023-04-25T14:40:02;6.30;;;5.07;;
553;SDS011;59;48.778;9.156;2023-04-25T14:42:29;7.10;;;5.20;;
553;SDS011;59;48.778;9.156;2023-04-25T14:44:55;6.73;;;5.83;;
553;SDS011;59;48.778;9.156;2023-04-25T14:47:21;6.27;;;4.77;;
553;SDS011;59;48.778;9.156;2023-04-25T14:49:46;7.83;;;5.03;;
553;SDS011;59;48.778;9.156;2023-04-25T14:52:18;5.60;;;4.40;;
553;SDS011;59;48.778;9.156;2023-04-25T14:54:47;5.67;;;4.83;;
553;SDS011;59;48.778;9.156;2023-04-25T14:57:13;8.63;;;6.00;;
553;SDS011;59;48.778;9.156;2023-04-25T14:59:39;7.77;;;5.40;;
553;SDS011;59;48.778;9.156;2023-04-25T15:02:05;7.83;;;4.77;;
553;SDS011;59;48.778;9.156;2023-04-25T15:04:31;8.70;;;4.40;;
553;SDS011;59;48.778;9.156;2023-04-25T15:06:56;5.93;;;4.50;;
553;SDS011;59;48.778;9.156;2023-04-25T15:09:22;7.30;;;4.70;;
553;SDS011;59;48.778;9.156;2023-04-25T15:11:49;5.03;;;4.37;;
553;SDS011;59;48.778;9.156;2023-04-25T15:14:16;4.93;;;4.70;;
553;SDS011;59;48.778;9.156;2023-04-25T15:16:42;6.57;;;4.60;;
553;SDS011;59;48.778;9.156;2023-04-25T15:19:07;5.47;;;4.47;;
553;SDS011;59;48.778;9.156;2023-04-25T15:21:33;8.07;;;5.87;;
553;SDS011;59;48.778;9.156;2023-04-25T15:23:59;8.07;;;5.60;;
553;SDS011;59;48.778;9.156;2023-04-25T15:26:25;6.30;;;4.83;;
553;SDS011;59;48.778;9.156;2023-04-25T15:28:51;6.17;;;4.80;;
553;SDS011;59;48.778;9.156;2023-04-25T15:31:17;6.57;;;4.97;;
553;SDS011;59;48.778;9.156;2023-04-25T15:33:43;6.40;;;5.23;;
553;SDS011;59;48.778;9.156;2023-04-25T15:36:08;7.47;;;5.30;;
553;SDS011;59;48.778;9.156;2023-04-25T15:38:35;8.77;;;5.60;;
553;SDS011;59;48.778;9.156;2023-04-25T15:41:01;8.90;;;6.40;;
553;SDS011;59;48.778;9.156;2023-04-25T15:43:26;12.13;;;6.30;;
553;SDS011;59;48.778;9.156;2023-04-25T15:45:52;6.67;;;5.17;;
553;SDS011;59;48.778;9.156;2023-04-25T15:48:18;5.70;;;4.60;;
553;SDS011;59;48.778;9.156;2023-04-25T15:50:44;5.10;;;4.50;;
553;SDS011;59;48.778;9.156;2023-04-25T15:53:10;6.30;;;4.90;;
553;SDS011;59;48.778;9.156;2023-04-25T15:55:36;5.67;;;4.73;;
553;SDS011;59;48.778;9.156;2023-04-25T15:58:02;7.10;;;5.30;;
553;SDS011;59;48.778;9.156;2023-04-25T16:00:28;7.03;;;4.87;;
553;SDS011;59;48.778;9.156;2023-04-25T16:02:53;7.43;;;5.37;;
553;SDS011;59;48.778;9.156;2023-04-25T16:05:20;6.87;;;5.20;;
553;SDS011;59;48.778;9.156;2023-04-25T16:07:45;6.90;;;5.30;;
553;SDS011;59;48.778;9.156;2023-04-25T16:10:11;7.07;;;5.23;;
553;SDS011;59;48.778;9.156;2023-04-25T16:12:38;6.70;;;5.70;;
553;SDS011;59;48.778;9.156;2023-04-25T16:15:04;10.40;;;7.30;;
553;SDS011;59;48.778;9.156;2023-04-25T16:17:30;8.17;;;6.70;;
553;SDS011;59;48.778;9.156;2023-04-25T16:19:57;11.07;;;7.50;;
553;SDS011;59;48.778;9.156;2023-04-25T16:22:23;13.60;;;10.50;;